Flight Track Log - Related Links

Times and Time Zones

All times are in EST time to prevent confusion due to time zone crossing. See the N1157U flight status page for this flight to view local times or setup timezone preferences in your user account.

Time Position Orientation Groundspeed Altitude Reporting Facility
EST Latitude Longitude Course Direction KTS MPH feet Rate Location/Type
Mon 10:48:12 AM 42.5000 -71.7667 200° South 102 117 2,700  Level KA90
Mon 10:49:44 AM 42.4667 -71.7833 200° South 100 115 3,500 537 Climbing KA90
Mon 10:50:15 AM 42.4494 -71.7878 191° South 105 121 3,800 545 Climbing Boston Center
Mon 10:50:39 AM 42.4378 -71.7925 197° South 106 122 4,000 492 Climbing Boston Center
Mon 10:51:16 AM 42.4211 -71.7969 191° South 104 120 4,300 545 Climbing Boston Center
Mon 10:51:34 AM 42.4103 -71.8003 193° South 107 123 4,500 197 Climbing Boston Center
Mon 10:52:17 AM 42.3914 -71.8061 193° South 109 125 4,500 98 Level Boston Center
Mon 10:52:35 AM 42.3781 -71.8122 199° South 140 161 4,600  Climbing Boston Center
Mon 10:53:17 AM 42.3514 -71.8186 190° South 146 168 4,500 -94 Descending Boston Center
Mon 10:53:39 AM 42.3325 -71.8256 195° South 147 169 4,500  Level Boston Center
Mon 10:54:18 AM 42.3100 -71.8311 190° South 152 175 4,500  Level Boston Center
Mon 10:54:36 AM 42.2975 -71.8394 206° Southwest 153 176 4,500  Level Boston Center
Mon 10:55:19 AM 42.2656 -71.8439 186° South 152 175 4,500  Level Boston Center
Mon 10:55:37 AM 42.2544 -71.8506 204° Southwest 151 174 4,500  Level Boston Center
Mon 10:56:37 AM 42.2133 -71.8625 192° South 145 167 4,500 67 Level Boston Center
Mon 10:57:07 AM 42.1944 -71.8697 196° South 149 171 4,600  Climbing Boston Center
Mon 10:57:22 AM 42.1869 -71.8706 185° South 145 167 4,500 -109 Descending Boston Center
Mon 10:58:02 AM 42.1575 -71.8822 196° South 150 173 4,500  Level Boston Center
Mon 10:58:23 AM 42.1456 -71.8833 184° South 152 175 4,500  Level Boston Center
Mon 10:59:02 AM 42.1156 -71.8956 197° South 157 181 4,500  Level Boston Center
Mon 10:59:23 AM 42.1003 -71.8975 185° South 155 178 4,500  Level Boston Center
Mon 11:00:02 AM 42.0739 -71.9089 198° South 159 183 4,500  Level Boston Center
Mon 11:00:24 AM 42.0575 -71.9133 191° South 157 181 4,500  Level Boston Center
Mon 11:01:03 AM 42.0322 -71.9222 195° South 149 171 4,500  Level Boston Center
Mon 11:01:27 AM 42.0169 -71.9283 197° South 153 176 4,500  Level Boston Center
Mon 11:02:04 AM 41.9925 -71.9364 194° South 149 171 4,500 98 Level Boston Center
Mon 11:02:28 AM 41.9736 -71.9417 192° South 148 170 4,600  Climbing Boston Center
Mon 11:03:04 AM 41.9508 -71.9497 195° South 146 168 4,500 -100 Descending Boston Center
Mon 11:03:28 AM 41.9342 -71.9544 192° South 147 169 4,500  Level Boston Center
Mon 11:04:04 AM 41.9114 -71.9611 192° South 138 159 4,500 98 Level Boston Center
Mon 11:04:29 AM 41.8956 -71.9656 192° South 143 165 4,600  Climbing Boston Center
Mon 11:05:05 AM 41.8697 -71.9744 194° South 153 176 4,500 -95 Descending Boston Center
Mon 11:05:32 AM 41.8539 -71.9800 195° South 151 174 4,500  Level Boston Center
Mon 11:06:05 AM 41.8306 -71.9858 191° South 146 168 4,500  Level Boston Center
Mon 11:06:31 AM 41.8153 -71.9906 193° South 143 165 4,500  Level Boston Center
Mon 11:07:07 AM 41.7908 -72.0000 196° South 138 159 4,500  Level Boston Center
Mon 11:07:34 AM 41.7753 -72.0042 191° South 140 161 4,500  Level Boston Center
Mon 11:08:07 AM 41.7536 -72.0119 195° South 144 166 4,500  Level Boston Center
Mon 11:08:34 AM 41.7364 -72.0158 190° South 142 163 4,500  Level Boston Center
Mon 11:09:08 AM 41.7144 -72.0233 194° South 141 162 4,500  Level Boston Center
Mon 11:09:35 AM 41.6981 -72.0278 191° South 142 163 4,500  Level Boston Center
Mon 11:10:10 AM 41.6747 -72.0372 197° South 141 162 4,500  Level Boston Center
Mon 11:10:37 AM 41.6581 -72.0408 189° South 138 159 4,500  Level Boston Center
Mon 11:11:10 AM 41.6356 -72.0486 194° South 141 162 4,500  Level Boston Center
Mon 11:11:37 AM 41.6192 -72.0533 192° South 143 165 4,500  Level Boston Center
Mon 11:12:10 AM 41.5964 -72.0600 192° South 144 166 4,500  Level Boston Center
Mon 11:12:38 AM 41.5806 -72.0658 195° South 143 165 4,500 98 Level Boston Center
Mon 11:13:11 AM 41.5567 -72.0739 194° South 149 171 4,600  Climbing Boston Center
Mon 11:13:41 AM 41.5375 -72.0786 190° South 144 166 4,500 -100 Descending Boston Center
Mon 11:14:11 AM 41.5175 -72.0850 193° South 146 168 4,500  Level Boston Center
Mon 11:14:42 AM 41.4961 -72.0914 193° South 154 177 4,500  Level Boston Center
Mon 11:15:12 AM 41.4756 -72.0983 194° South 157 181 4,500  Level Boston Center
Mon 11:15:42 AM 41.4542 -72.1028 189° South 154 177 4,500  Level Boston Center
Mon 11:16:07 AM 41.4364 -72.1094 196° South 148 170 4,500  Level Boston Center
Mon 11:16:43 AM 41.4147 -72.1150 191° South 147 169 4,500  Level Boston Center
Mon 11:17:07 AM 41.3953 -72.1200 191° South 147 169 4,500  Level Boston Center
Mon 11:17:44 AM 41.3719 -72.1269 193° South 146 168 4,500  Level Boston Center
Mon 11:18:08 AM 41.3575 -72.1344 201° Southwest 146 168 4,500  Level Boston Center
Mon 11:18:48 AM 41.3331 -72.1400 190° South 145 167 4,500  Level Boston Center
Mon 11:19:09 AM 41.3164 -72.1450 193° South 147 169 4,500 -100 Level Boston Center
Mon 11:19:48 AM 41.2922 -72.1519 192° South 149 171 4,400 -295 Descending Boston Center
Mon 11:20:10 AM 41.2767 -72.1589 199° South 155 178 4,200 -393 Descending Boston Center
Mon 11:20:49 AM 41.2522 -72.1628 187° South 159 183 4,000 -500 Descending Boston Center
Mon 11:21:10 AM 41.2328 -72.1711 198° South 161 185 3,700 -400 Descending Boston Center
Mon 11:21:49 AM 41.2089 -72.1772 191° South 161 185 3,600 -58 Descending Boston Center
Mon 11:22:53 AM 41.1658 -72.1886 191° South 162 186 3,600  Level Boston Center
Mon 11:24:00 AM 41.1218 -72.1872 194° South  Level FlightAware Approximate
Mon 11:31:00 AM 40.9594 -72.2517 197° South  Level Estimated
Mon 11:32:00 AM 40.9594 -72.2517 197° South  Level Estimated
Mon 11:33:00 AM 40.9594 -72.2517 197° South  Level Estimated

Login

Don't have an account? Register now (free) for customized features, flight alerts, and more!